NCAR-RAP Real-Time Weather Data

Output produced by METARs form (14 October 2019  23:19 UTC)
found at http://weather.rap.ucar.edu/surface/
 
KTUL 142253Z 13008G17KT 10SM FEW200 FEW250 22/14 A2987 RMK AO2 SLP110 T02220139
KTUL 142153Z 15012G19KT 10SM SCT200 BKN250 23/14 A2988 RMK AO2 SLP112 T02330144
KTUL 142053Z 14012G18KT 10SM SCT200 BKN250 24/14 A2989 RMK AO2 SLP116 T02440144 56025
KTUL 141953Z 14015KT 10SM FEW200 SCT250 24/14 A2990 RMK AO2 SLP119 T02390139
KTUL 141853Z 12011G19KT 10SM FEW200 SCT250 24/13 A2993 RMK AO2 SLP130 T02390133
KTUL 141753Z 15010KT 10SM FEW200 SCT250 23/13 A2996 RMK AO2 SLP141 T02280128 10228 20089 58022
KTUL 141653Z 17011KT 10SM FEW200 SCT250 21/12 A3000 RMK AO2 SLP153 T02110117
KTUL 141553Z 15010KT 10SM FEW200 SCT250 18/11 A3002 RMK AO2 SLP161 T01830106
KTUL 141453Z 14008KT 10SM FEW120 SCT250 16/11 A3003 RMK AO2 SLP164 T01560106 50000
KTUL 141353Z 12005KT 10SM FEW120 SCT250 12/10 A3003 RMK AO2 SLP165 T01170100
KTUL 141253Z 11005KT 10SM FEW250 09/08 A3003 RMK AO2 SLP166 T00940083
KTUL 141153Z 09003KT 10SM FEW120 FEW250 09/08 A3003 RMK AO2 SLP165 T00940083 10117 20083 53008
KTUL 141053Z 12004KT 10SM FEW250 08/08 A3001 RMK AO2 SLP160 T00830078
KTUL 140953Z 13003KT 10SM CLR 09/08 A3000 RMK AO2 SLP155 T00940083
KTUL 140853Z 13004KT 10SM CLR 10/08 A3000 RMK AO2 SLP155 T01000083 58001
KTUL 140753Z 00000KT 10SM CLR 11/08 A3000 RMK AO2 SLP156 T01060078
KTUL 140653Z 00000KT 10SM CLR 11/08 A3000 RMK AO2 SLP155 T01110078
KTUL 140553Z 00000KT 10SM CLR 12/08 A3000 RMK AO2 SLP155 T01170078 10178 20117 402330056 50003
KTUL 140453Z 00000KT 10SM CLR 12/08 A3001 RMK AO2 SLP158 T01220078
KTUL 140353Z 14004KT 10SM CLR 14/07 A3000 RMK AO2 SLP156 T01440072
KTUL 140253Z 16005KT 10SM CLR 15/07 A2999 RMK AO2 SLP154 T01500067 51015
KTUL 140153Z 15005KT 10SM CLR 17/06 A2998 RMK AO2 SLP150 T01670061
KTUL 140053Z 14004KT 10SM CLR 17/07 A2997 RMK AO2 SLP146 T01670067
KTUL 132353Z 12005KT 10SM CLR 18/08 A2995 RMK AO2 SLP138 T01780078 10233 20178 53003
KTUL 132253Z 15007KT 10SM CLR 22/06 A2994 RMK AO2 SLP134 T02220056
KTUL 132153Z 17009KT 10SM FEW002 23/06 A2993 RMK AO2 SLP133 FU FEW002 NE OF APT T02280056
KTUL 132053Z 18008KT 10SM CLR 23/05 A2994 RMK AO2 SLP134 T02280050 56021
KTUL 131953Z 18008KT 10SM CLR 22/06 A2995 RMK AO2 SLP140 T02220056
KTUL 131853Z 20008KT 10SM CLR 21/05 A2998 RMK AO2 SLP147 T02110050
KTUL 131753Z 18008KT 10SM CLR 20/05 A3000 RMK AO2 SLP156 T02000050 10200 20056 58008
KTUL 131653Z 17008KT 10SM CLR 18/05 A3002 RMK AO2 SLP161 T01780050
KTUL 131553Z 19009G14KT 10SM CLR 16/04 A3003 RMK AO2 SLP166 T01560039
KTUL 131453Z 18008KT 10SM CLR 13/03 A3003 RMK AO2 SLP165 T01280028 53010
KTUL 131353Z 17006KT 10SM CLR 09/03 A3002 RMK AO2 SLP163 T00940028
KTUL 131253Z 17007KT 10SM CLR 07/02 A2999 RMK AO2 SLP155 T00670017
KTUL 131153Z 14003KT 10SM CLR 06/02 A3000 RMK AO2 SLP156 T00610017 10089 20056 53002
KTUL 131053Z 16006KT 10SM CLR 07/02 A2999 RMK AO2 SLP153 T00720017
KTUL 130953Z 16007KT 10SM CLR 07/02 A2998 RMK AO2 SLP150 T00720017
KTUL 130853Z 16004KT 10SM CLR 06/02 A2999 RMK AO2 SLP153 T00610017 58003
KTUL 130753Z 00000KT 10SM CLR 07/02 A3000 RMK AO2 SLP156 T00720022
KTUL 130653Z 17005KT 10SM CLR 07/02 A2999 RMK AO2 SLP154 T00720022
KTUL 130553Z 17006KT 10SM CLR 09/02 A3000 RMK AO2 SLP156 T00890017 10161 20089 401940011 58007
KTUL 130453Z 18008KT 10SM CLR 11/02 A3001 RMK AO2 SLP160 T01060017
KTUL 130353Z 19008KT 10SM CLR 11/02 A3003 RMK AO2 SLP167 T01110017
KTUL 130253Z 17010KT 10SM CLR 12/02 A3002 RMK AO2 SLP164 T01170022 53001
KTUL 130153Z 17009KT 10SM CLR 12/02 A3002 RMK AO2 SLP165 T01220022
KTUL 130053Z 17008KT 10SM CLR 14/02 A3001 RMK AO2 SLP161 T01390017
KTUL 122353Z 18007KT 10SM FEW250 16/00 A3002 RMK AO2 SLP164 T01560000 10194 20156 56014